sensor_id;sensor_type;location;lat;lon;timestamp;pressure;altitude;pressure_sealevel;temperature;humidity
28428;BME280;15662;49.128;8.520;2022-12-18T00:00:05;101733.69;;;-1.56;48.41
28428;BME280;15662;49.128;8.520;2022-12-18T00:02:40;101741.34;;;-1.59;48.35
28428;BME280;15662;49.128;8.520;2022-12-18T00:05:08;101728.22;;;-1.62;48.15
28428;BME280;15662;49.128;8.520;2022-12-18T00:07:36;101741.34;;;-1.59;48.17
28428;BME280;15662;49.128;8.520;2022-12-18T00:10:05;101745.66;;;-1.60;48.22
28428;BME280;15662;49.128;8.520;2022-12-18T00:12:32;101743.94;;;-1.59;48.47
28428;BME280;15662;49.128;8.520;2022-12-18T00:15:00;101731.78;;;-1.60;48.42
28428;BME280;15662;49.128;8.520;2022-12-18T00:17:28;101733.50;;;-1.61;48.43
28428;BME280;15662;49.128;8.520;2022-12-18T00:19:56;101730.13;;;-1.58;48.46
28428;BME280;15662;49.128;8.520;2022-12-18T00:22:24;101741.34;;;-1.59;48.14
28428;BME280;15662;49.128;8.520;2022-12-18T00:24:52;101744.78;;;-1.60;48.55
28428;BME280;15662;49.128;8.520;2022-12-18T00:27:20;101737.72;;;-1.63;48.45
28428;BME280;15662;49.128;8.520;2022-12-18T00:29:48;101736.91;;;-1.62;48.57
28428;BME280;15662;49.128;8.520;2022-12-18T00:32:16;101734.22;;;-1.63;48.53
28428;BME280;15662;49.128;8.520;2022-12-18T00:34:44;101753.31;;;-1.63;48.16
28428;BME280;15662;49.128;8.520;2022-12-18T00:37:12;101748.94;;;-1.64;48.64
28428;BME280;15662;49.128;8.520;2022-12-18T00:39:50;101763.66;;;-1.64;48.32
28428;BME280;15662;49.128;8.520;2022-12-18T00:42:20;101757.63;;;-1.63;48.56
28428;BME280;15662;49.128;8.520;2022-12-18T00:45:07;101747.09;;;-1.66;48.49
28428;BME280;15662;49.128;8.520;2022-12-18T00:47:40;101734.00;;;-1.68;48.73
28428;BME280;15662;49.128;8.520;2022-12-18T00:50:09;101734.09;;;-1.66;48.64
28428;BME280;15662;49.128;8.520;2022-12-18T00:52:40;101740.25;;;-1.64;48.49
28428;BME280;15662;49.128;8.520;2022-12-18T00:55:08;101753.59;;;-1.76;48.35
28428;BME280;15662;49.128;8.520;2022-12-18T00:57:37;101766.72;;;-1.73;48.79
28428;BME280;15662;49.128;8.520;2022-12-18T01:00:08;101758.19;;;-1.70;48.46
28428;BME280;15662;49.128;8.520;2022-12-18T01:02:40;101761.66;;;-1.70;48.74
28428;BME280;15662;49.128;8.520;2022-12-18T01:05:12;101748.88;;;-1.65;48.64
28428;BME280;15662;49.128;8.520;2022-12-18T01:07:40;101741.97;;;-1.65;48.71
28428;BME280;15662;49.128;8.520;2022-12-18T01:10:10;101735.03;;;-1.64;48.29
28428;BME280;15662;49.128;8.520;2022-12-18T01:12:39;101735.00;;;-1.66;48.57
28428;BME280;15662;49.128;8.520;2022-12-18T01:15:09;101742.03;;;-1.63;48.33
28428;BME280;15662;49.128;8.520;2022-12-18T01:17:37;101744.50;;;-1.66;48.62
28428;BME280;15662;49.128;8.520;2022-12-18T01:20:06;101754.28;;;-1.61;48.67
28428;BME280;15662;49.128;8.520;2022-12-18T01:22:35;101740.41;;;-1.61;48.45
28428;BME280;15662;49.128;8.520;2022-12-18T01:25:05;101757.72;;;-1.62;48.54
28428;BME280;15662;49.128;8.520;2022-12-18T01:27:34;101752.56;;;-1.60;48.61
28428;BME280;15662;49.128;8.520;2022-12-18T01:30:04;101732.72;;;-1.58;48.50
28428;BME280;15662;49.128;8.520;2022-12-18T01:32:32;101731.09;;;-1.56;48.69
28428;BME280;15662;49.128;8.520;2022-12-18T01:35:02;101728.44;;;-1.58;48.70
28428;BME280;15662;49.128;8.520;2022-12-18T01:37:30;101740.81;;;-1.52;48.54
28428;BME280;15662;49.128;8.520;2022-12-18T01:39:58;101746.09;;;-1.50;48.31
28428;BME280;15662;49.128;8.520;2022-12-18T01:42:26;101737.44;;;-1.49;48.44
28428;BME280;15662;49.128;8.520;2022-12-18T01:47:43;101743.69;;;-1.46;48.67
28428;BME280;15662;49.128;8.520;2022-12-18T01:50:25;101745.31;;;-1.48;48.37
28428;BME280;15662;49.128;8.520;2022-12-18T01:53:06;101758.66;;;-1.60;48.79
28428;BME280;15662;49.128;8.520;2022-12-18T01:55:46;101760.59;;;-1.56;48.67
28428;BME280;15662;49.128;8.520;2022-12-18T01:58:15;101757.16;;;-1.54;48.53
28428;BME280;15662;49.128;8.520;2022-12-18T02:00:44;101746.81;;;-1.53;48.46
28428;BME280;15662;49.128;8.520;2022-12-18T02:03:12;101743.53;;;-1.49;48.56
28428;BME280;15662;49.128;8.520;2022-12-18T02:09:11;101741.97;;;-1.45;48.51
28428;BME280;15662;49.128;8.520;2022-12-18T02:12:05;101741.97;;;-1.45;48.36
28428;BME280;15662;49.128;8.520;2022-12-18T02:17:47;101732.31;;;-1.48;48.48
28428;BME280;15662;49.128;8.520;2022-12-18T02:20:46;101735.69;;;-1.50;48.39
28428;BME280;15662;49.128;8.520;2022-12-18T02:26:34;101742.59;;;-1.51;48.76
28428;BME280;15662;49.128;8.520;2022-12-18T02:29:23;101747.78;;;-1.51;48.97
28428;BME280;15662;49.128;8.520;2022-12-18T02:31:59;101749.72;;;-1.47;48.72
28428;BME280;15662;49.128;8.520;2022-12-18T02:34:31;101755.13;;;-1.42;48.79
28428;BME280;15662;49.128;8.520;2022-12-18T02:37:04;101751.81;;;-1.38;48.90
28428;BME280;15662;49.128;8.520;2022-12-18T02:39:36;101749.31;;;-1.37;48.73
28428;BME280;15662;49.128;8.520;2022-12-18T02:42:06;101738.91;;;-1.37;48.88
28428;BME280;15662;49.128;8.520;2022-12-18T02:44:46;101749.38;;;-1.35;49.14
28428;BME280;15662;49.128;8.520;2022-12-18T02:47:22;101750.13;;;-1.38;48.91
28428;BME280;15662;49.128;8.520;2022-12-18T02:50:30;101761.47;;;-1.36;48.82
28428;BME280;15662;49.128;8.520;2022-12-18T03:01:56;101762.78;;;-1.26;48.83
28428;BME280;15662;49.128;8.520;2022-12-18T03:05:05;101756.63;;;-1.28;48.98
28428;BME280;15662;49.128;8.520;2022-12-18T03:07:57;101748.75;;;-1.30;48.95
28428;BME280;15662;49.128;8.520;2022-12-18T03:10:33;101753.00;;;-1.32;48.87
28428;BME280;15662;49.128;8.520;2022-12-18T03:13:08;101752.16;;;-1.31;49.18
28428;BME280;15662;49.128;8.520;2022-12-18T03:15:44;101742.66;;;-1.30;48.94
28428;BME280;15662;49.128;8.520;2022-12-18T03:18:26;101751.34;;;-1.30;48.99
28428;BME280;15662;49.128;8.520;2022-12-18T03:21:00;101747.03;;;-1.29;48.88
28428;BME280;15662;49.128;8.520;2022-12-18T03:23:39;101749.78;;;-1.26;49.18
28428;BME280;15662;49.128;8.520;2022-12-18T03:26:13;101742.84;;;-1.25;49.12
28428;BME280;15662;49.128;8.520;2022-12-18T03:28:53;101749.94;;;-1.23;49.19
28428;BME280;15662;49.128;8.520;2022-12-18T03:31:23;101749.09;;;-1.22;49.36
28428;BME280;15662;49.128;8.520;2022-12-18T03:33:59;101743.06;;;-1.21;49.17
28428;BME280;15662;49.128;8.520;2022-12-18T03:36:38;101734.22;;;-1.24;49.26
28428;BME280;15662;49.128;8.520;2022-12-18T03:39:06;101726.41;;;-1.24;48.88
28428;BME280;15662;49.128;8.520;2022-12-18T03:41:43;101735.25;;;-1.21;49.07
28428;BME280;15662;49.128;8.520;2022-12-18T03:47:42;101730.94;;;-1.20;49.05
28428;BME280;15662;49.128;8.520;2022-12-18T03:55:50;101731.78;;;-1.21;49.42
28428;BME280;15662;49.128;8.520;2022-12-18T03:58:24;101733.50;;;-1.22;49.29
28428;BME280;15662;49.128;8.520;2022-12-18T04:01:14;101735.31;;;-1.19;49.12
28428;BME280;15662;49.128;8.520;2022-12-18T04:03:44;101727.59;;;-1.18;49.11
28428;BME280;15662;49.128;8.520;2022-12-18T04:06:14;101721.47;;;-1.18;49.21
28428;BME280;15662;49.128;8.520;2022-12-18T04:08:44;101729.47;;;-1.14;49.20
28428;BME280;15662;49.128;8.520;2022-12-18T04:11:15;101722.59;;;-1.13;49.33
28428;BME280;15662;49.128;8.520;2022-12-18T04:13:45;101721.78;;;-1.12;49.37
28428;BME280;15662;49.128;8.520;2022-12-18T04:16:23;101714.78;;;-1.13;49.35
28428;BME280;15662;49.128;8.520;2022-12-18T04:18:54;101717.41;;;-1.13;49.45
28428;BME280;15662;49.128;8.520;2022-12-18T04:21:24;101711.34;;;-1.12;49.55
28428;BME280;15662;49.128;8.520;2022-12-18T04:23:53;101707.88;;;-1.13;49.21
28428;BME280;15662;49.128;8.520;2022-12-18T04:26:23;101713.13;;;-1.11;49.32
28428;BME280;15662;49.128;8.520;2022-12-18T04:29:14;101719.16;;;-1.12;49.68
28428;BME280;15662;49.128;8.520;2022-12-18T04:31:42;101703.41;;;-1.15;49.58
28428;BME280;15662;49.128;8.520;2022-12-18T04:34:10;101706.84;;;-1.16;49.55
28428;BME280;15662;49.128;8.520;2022-12-18T04:36:43;101707.03;;;-1.12;49.56
28428;BME280;15662;49.128;8.520;2022-12-18T04:39:10;101704.50;;;-1.10;49.51
28428;BME280;15662;49.128;8.520;2022-12-18T04:41:58;101712.97;;;-1.14;49.94
28428;BME280;15662;49.128;8.520;2022-12-18T04:44:26;101720.94;;;-1.11;49.83
28428;BME280;15662;49.128;8.520;2022-12-18T04:46:54;101716.56;;;-1.12;49.71
28428;BME280;15662;49.128;8.520;2022-12-18T04:49:23;101712.34;;;-1.09;49.46
28428;BME280;15662;49.128;8.520;2022-12-18T04:51:51;101705.53;;;-1.07;49.70
28428;BME280;15662;49.128;8.520;2022-12-18T04:54:20;101713.28;;;-1.08;50.01
28428;BME280;15662;49.128;8.520;2022-12-18T04:56:48;101721.19;;;-1.05;49.81
28428;BME280;15662;49.128;8.520;2022-12-18T04:59:16;101707.28;;;-1.06;49.70
28428;BME280;15662;49.128;8.520;2022-12-18T05:01:44;101714.28;;;-1.05;49.95
28428;BME280;15662;49.128;8.520;2022-12-18T05:04:13;101714.41;;;-1.01;49.82
28428;BME280;15662;49.128;8.520;2022-12-18T05:06:41;101718.72;;;-1.02;50.20
28428;BME280;15662;49.128;8.520;2022-12-18T05:09:08;101711.81;;;-1.01;50.09
28428;BME280;15662;49.128;8.520;2022-12-18T05:11:36;101719.66;;;-1.00;50.28
28428;BME280;15662;49.128;8.520;2022-12-18T05:14:04;101726.75;;;-0.97;50.31
28428;BME280;15662;49.128;8.520;2022-12-18T05:16:32;101727.72;;;-0.94;50.47
28428;BME280;15662;49.128;8.520;2022-12-18T05:19:00;101734.84;;;-0.90;50.35
28428;BME280;15662;49.128;8.520;2022-12-18T05:21:27;101738.34;;;-0.89;50.33
28428;BME280;15662;49.128;8.520;2022-12-18T05:23:55;101730.47;;;-0.91;50.10
28428;BME280;15662;49.128;8.520;2022-12-18T05:26:23;101749.03;;;-0.83;50.13
28428;BME280;15662;49.128;8.520;2022-12-18T05:28:50;101752.63;;;-0.80;50.16
28428;BME280;15662;49.128;8.520;2022-12-18T05:31:18;101746.81;;;-0.74;50.04
28428;BME280;15662;49.128;8.520;2022-12-18T05:33:49;101734.63;;;-0.75;49.71
28428;BME280;15662;49.128;8.520;2022-12-18T05:36:17;101724.00;;;-0.80;50.13
28428;BME280;15662;49.128;8.520;2022-12-18T05:38:45;101738.94;;;-0.75;49.85
28428;BME280;15662;49.128;8.520;2022-12-18T05:41:12;101734.69;;;-0.73;49.85
28428;BME280;15662;49.128;8.520;2022-12-18T05:43:40;101746.88;;;-0.72;49.93
28428;BME280;15662;49.128;8.520;2022-12-18T05:46:16;101733.91;;;-0.71;49.68
28428;BME280;15662;49.128;8.520;2022-12-18T05:48:45;101741.00;;;-0.68;49.93
28428;BME280;15662;49.128;8.520;2022-12-18T05:51:17;101731.50;;;-0.66;49.55
28428;BME280;15662;49.128;8.520;2022-12-18T05:53:45;101724.41;;;-0.70;49.41
28428;BME280;15662;49.128;8.520;2022-12-18T05:56:20;101730.47;;;-0.70;49.50
28428;BME280;15662;49.128;8.520;2022-12-18T05:58:52;101725.81;;;-0.79;48.85
28428;BME280;15662;49.128;8.520;2022-12-18T06:01:24;101732.53;;;-0.84;48.96
28428;BME280;15662;49.128;8.520;2022-12-18T06:03:53;101736.56;;;-0.90;49.00
28428;BME280;15662;49.128;8.520;2022-12-18T06:06:26;101746.97;;;-0.90;49.14
28428;BME280;15662;49.128;8.520;2022-12-18T06:08:56;101760.63;;;-0.96;48.78
28428;BME280;15662;49.128;8.520;2022-12-18T06:11:26;101763.91;;;-1.00;48.84
28428;BME280;15662;49.128;8.520;2022-12-18T06:13:56;101773.13;;;-1.08;48.67
28428;BME280;15662;49.128;8.520;2022-12-18T06:16:27;101773.81;;;-1.12;48.99
28428;BME280;15662;49.128;8.520;2022-12-18T06:18:59;101776.88;;;-1.21;48.81
28428;BME280;15662;49.128;8.520;2022-12-18T06:21:28;101779.97;;;-1.30;48.78
28428;BME280;15662;49.128;8.520;2022-12-18T06:23:55;101780.63;;;-1.34;48.87
28428;BME280;15662;49.128;8.520;2022-12-18T06:26:24;101781.47;;;-1.35;48.77
28428;BME280;15662;49.128;8.520;2022-12-18T06:28:55;101792.53;;;-1.39;49.01
28428;BME280;15662;49.128;8.520;2022-12-18T06:31:22;101797.69;;;-1.40;49.01
28428;BME280;15662;49.128;8.520;2022-12-18T06:33:50;101795.91;;;-1.41;48.85
28428;BME280;15662;49.128;8.520;2022-12-18T06:36:18;101800.22;;;-1.42;48.57
28428;BME280;15662;49.128;8.520;2022-12-18T06:38:47;101796.66;;;-1.44;48.94
28428;BME280;15662;49.128;8.520;2022-12-18T06:41:18;101802.84;;;-1.42;48.44
28428;BME280;15662;49.128;8.520;2022-12-18T06:43:46;101802.69;;;-1.45;48.53
28428;BME280;15662;49.128;8.520;2022-12-18T06:46:14;101818.13;;;-1.48;48.33
28428;BME280;15662;49.128;8.520;2022-12-18T06:48:42;101825.13;;;-1.47;48.27
28428;BME280;15662;49.128;8.520;2022-12-18T06:51:10;101824.25;;;-1.47;48.42
28428;BME280;15662;49.128;8.520;2022-12-18T06:53:38;101824.16;;;-1.49;48.54
28428;BME280;15662;49.128;8.520;2022-12-18T06:56:07;101814.59;;;-1.50;48.26
28428;BME280;15662;49.128;8.520;2022-12-18T06:58:38;101808.34;;;-1.53;48.35
28428;BME280;15662;49.128;8.520;2022-12-18T07:01:09;101819.84;;;-1.48;48.34
28428;BME280;15662;49.128;8.520;2022-12-18T07:03:41;101825.19;;;-1.45;48.45
28428;BME280;15662;49.128;8.520;2022-12-18T07:06:19;101816.50;;;-1.46;48.50
28428;BME280;15662;49.128;8.520;2022-12-18T07:08:48;101826.69;;;-1.50;48.33
28428;BME280;15662;49.128;8.520;2022-12-18T07:11:17;101837.09;;;-1.50;48.63
28428;BME280;15662;49.128;8.520;2022-12-18T07:13:46;101847.66;;;-1.47;48.80
28428;BME280;15662;49.128;8.520;2022-12-18T07:16:17;101847.56;;;-1.49;48.88
28428;BME280;15662;49.128;8.520;2022-12-18T07:18:53;101832.78;;;-1.50;48.89
28428;BME280;15662;49.128;8.520;2022-12-18T07:21:22;101831.28;;;-1.45;48.95
28428;BME280;15662;49.128;8.520;2022-12-18T07:23:50;101839.97;;;-1.44;49.24
28428;BME280;15662;49.128;8.520;2022-12-18T07:26:20;101837.59;;;-1.40;49.16
28428;BME280;15662;49.128;8.520;2022-12-18T07:28:49;101844.56;;;-1.39;49.12
28428;BME280;15662;49.128;8.520;2022-12-18T07:31:20;101845.47;;;-1.38;49.56
28428;BME280;15662;49.128;8.520;2022-12-18T07:33:50;101850.97;;;-1.32;48.98
28428;BME280;15662;49.128;8.520;2022-12-18T07:36:19;101855.28;;;-1.33;49.35
28428;BME280;15662;49.128;8.520;2022-12-18T07:38:48;101856.16;;;-1.32;49.24
28428;BME280;15662;49.128;8.520;2022-12-18T07:41:17;101858.56;;;-1.37;49.35
28428;BME280;15662;49.128;8.520;2022-12-18T07:43:46;101858.63;;;-1.35;49.51
28428;BME280;15662;49.128;8.520;2022-12-18T07:46:15;101868.41;;;-1.30;49.35
28428;BME280;15662;49.128;8.520;2022-12-18T07:48:44;101864.09;;;-1.29;49.41
28428;BME280;15662;49.128;8.520;2022-12-18T07:51:17;101865.06;;;-1.27;49.67
28428;BME280;15662;49.128;8.520;2022-12-18T07:53:46;101853.00;;;-1.25;49.68
28428;BME280;15662;49.128;8.520;2022-12-18T07:56:19;101859.25;;;-1.21;49.66
28428;BME280;15662;49.128;8.520;2022-12-18T07:58:57;101868.91;;;-1.19;49.64
28428;BME280;15662;49.128;8.520;2022-12-18T08:01:26;101866.50;;;-1.14;49.70
28428;BME280;15662;49.128;8.520;2022-12-18T08:03:54;101872.81;;;-1.09;49.86
28428;BME280;15662;49.128;8.520;2022-12-18T08:06:22;101880.81;;;-1.05;49.53
28428;BME280;15662;49.128;8.520;2022-12-18T08:08:55;101877.41;;;-1.04;49.52
28428;BME280;15662;49.128;8.520;2022-12-18T08:11:28;101876.81;;;-0.98;49.62
28428;BME280;15662;49.128;8.520;2022-12-18T08:13:56;101874.31;;;-0.95;49.47
28428;BME280;15662;49.128;8.520;2022-12-18T08:16:25;101884.13;;;-0.89;49.39
28428;BME280;15662;49.128;8.520;2022-12-18T08:18:54;101872.91;;;-0.88;49.35
28428;BME280;15662;49.128;8.520;2022-12-18T08:21:28;101881.72;;;-0.85;49.38
28428;BME280;15662;49.128;8.520;2022-12-18T08:24:01;101871.47;;;-0.82;49.43
28428;BME280;15662;49.128;8.520;2022-12-18T08:26:30;101875.00;;;-0.80;49.67
28428;BME280;15662;49.128;8.520;2022-12-18T08:29:00;101883.78;;;-0.77;49.58
28428;BME280;15662;49.128;8.520;2022-12-18T08:31:29;101875.84;;;-0.81;49.70
28428;BME280;15662;49.128;8.520;2022-12-18T08:33:58;101874.22;;;-0.79;49.62
28428;BME280;15662;49.128;8.520;2022-12-18T08:36:26;101877.06;;;-0.72;49.80
28428;BME280;15662;49.128;8.520;2022-12-18T08:38:54;101866.66;;;-0.72;49.65
28428;BME280;15662;49.128;8.520;2022-12-18T08:41:22;101858.06;;;-0.70;49.81
28428;BME280;15662;49.128;8.520;2022-12-18T08:43:51;101857.44;;;-0.64;49.82
28428;BME280;15662;49.128;8.520;2022-12-18T08:46:41;101847.97;;;-0.64;50.23
28428;BME280;15662;49.128;8.520;2022-12-18T08:49:10;101864.56;;;-0.60;49.75
28428;BME280;15662;49.128;8.520;2022-12-18T08:51:39;101847.13;;;-0.63;50.24
28428;BME280;15662;49.128;8.520;2022-12-18T08:54:08;101837.69;;;-0.59;49.91
28428;BME280;15662;49.128;8.520;2022-12-18T08:56:38;101829.09;;;-0.58;50.13
28428;BME280;15662;49.128;8.520;2022-12-18T08:59:06;101826.69;;;-0.54;49.90
28428;BME280;15662;49.128;8.520;2022-12-18T09:01:34;101828.66;;;-0.48;49.93
28428;BME280;15662;49.128;8.520;2022-12-18T09:04:03;101825.28;;;-0.45;50.17
28428;BME280;15662;49.128;8.520;2022-12-18T09:06:32;101825.47;;;-0.41;50.35
28428;BME280;15662;49.128;8.520;2022-12-18T09:09:00;101830.00;;;-0.37;50.23
28428;BME280;15662;49.128;8.520;2022-12-18T09:11:30;101824.19;;;-0.30;50.22
28428;BME280;15662;49.128;8.520;2022-12-18T09:14:00;101817.53;;;-0.23;50.24
28428;BME280;15662;49.128;8.520;2022-12-18T09:16:29;101816.91;;;-0.17;50.12
28428;BME280;15662;49.128;8.520;2022-12-18T09:19:00;101808.38;;;-0.13;50.32
28428;BME280;15662;49.128;8.520;2022-12-18T09:21:32;101819.09;;;-0.06;49.80
28428;BME280;15662;49.128;8.520;2022-12-18T09:24:05;101826.16;;;-0.03;50.13
28428;BME280;15662;49.128;8.520;2022-12-18T09:26:36;101818.53;;;0.02;50.06
28428;BME280;15662;49.128;8.520;2022-12-18T09:29:05;101836.78;;;0.02;49.94
28428;BME280;15662;49.128;8.520;2022-12-18T09:31:36;101853.25;;;0.01;49.77
28428;BME280;15662;49.128;8.520;2022-12-18T09:34:07;101846.19;;;-0.02;49.71
28428;BME280;15662;49.128;8.520;2022-12-18T09:36:35;101842.69;;;-0.03;49.67
28428;BME280;15662;49.128;8.520;2022-12-18T09:39:03;101846.25;;;-0.01;49.75
28428;BME280;15662;49.128;8.520;2022-12-18T09:44:29;101869.91;;;0.04;49.74
28428;BME280;15662;49.128;8.520;2022-12-18T09:47:39;101872.63;;;0.07;49.71
28428;BME280;15662;49.128;8.520;2022-12-18T09:50:32;101876.91;;;0.05;49.63
28428;BME280;15662;49.128;8.520;2022-12-18T09:53:14;101880.50;;;0.09;49.87
28428;BME280;15662;49.128;8.520;2022-12-18T09:55:46;101882.22;;;0.08;49.85
28428;BME280;15662;49.128;8.520;2022-12-18T09:58:43;101880.91;;;0.18;49.91
28428;BME280;15662;49.128;8.520;2022-12-18T10:01:21;101877.53;;;0.20;50.12
28428;BME280;15662;49.128;8.520;2022-12-18T10:03:51;101872.25;;;0.19;49.98
28428;BME280;15662;49.128;8.520;2022-12-18T10:06:35;101885.53;;;0.25;49.70
28428;BME280;15662;49.128;8.520;2022-12-18T10:09:32;101878.84;;;0.32;49.97
28428;BME280;15662;49.128;8.520;2022-12-18T10:12:08;101879.88;;;0.35;49.92
28428;BME280;15662;49.128;8.520;2022-12-18T10:14:56;101883.47;;;0.39;49.52
28428;BME280;15662;49.128;8.520;2022-12-18T10:17:45;101888.75;;;0.40;49.93
28428;BME280;15662;49.128;8.520;2022-12-18T10:23:32;101876.53;;;0.39;49.76
28428;BME280;15662;49.128;8.520;2022-12-18T10:26:07;101860.78;;;0.36;50.01
28428;BME280;15662;49.128;8.520;2022-12-18T10:28:39;101867.06;;;0.41;49.82
28428;BME280;15662;49.128;8.520;2022-12-18T10:31:18;101855.75;;;0.41;49.97
28428;BME280;15662;49.128;8.520;2022-12-18T10:33:47;101859.41;;;0.46;50.12
28428;BME280;15662;49.128;8.520;2022-12-18T10:36:15;101856.38;;;0.58;50.07
28428;BME280;15662;49.128;8.520;2022-12-18T10:38:43;101863.69;;;0.66;50.34
28428;BME280;15662;49.128;8.520;2022-12-18T10:41:31;101854.34;;;0.73;50.19
28428;BME280;15662;49.128;8.520;2022-12-18T10:44:20;101849.53;;;0.84;50.08
28428;BME280;15662;49.128;8.520;2022-12-18T10:46:53;101853.31;;;0.92;50.46
28428;BME280;15662;49.128;8.520;2022-12-18T10:49:27;101850.13;;;0.99;49.83
28428;BME280;15662;49.128;8.520;2022-12-18T10:52:18;101849.28;;;1.00;49.79
28428;BME280;15662;49.128;8.520;2022-12-18T10:54:57;101831.91;;;1.00;50.19
28428;BME280;15662;49.128;8.520;2022-12-18T10:59:57;101843.34;;;1.04;49.86
28428;BME280;15662;49.128;8.520;2022-12-18T11:02:36;101855.63;;;1.07;50.13
28428;BME280;15662;49.128;8.520;2022-12-18T11:05:29;101844.47;;;1.11;50.03
28428;BME280;15662;49.128;8.520;2022-12-18T11:07:59;101851.56;;;1.15;50.26
28428;BME280;15662;49.128;8.520;2022-12-18T11:10:33;101861.47;;;1.23;50.12
28428;BME280;15662;49.128;8.520;2022-12-18T11:13:15;101859.16;;;1.33;50.18
28428;BME280;15662;49.128;8.520;2022-12-18T11:15:44;101856.53;;;1.33;50.06
28428;BME280;15662;49.128;8.520;2022-12-18T11:18:35;101860.28;;;1.39;49.85
28428;BME280;15662;49.128;8.520;2022-12-18T11:21:09;101860.34;;;1.41;50.05
28428;BME280;15662;49.128;8.520;2022-12-18T11:23:54;101842.22;;;1.45;49.72
28428;BME280;15662;49.128;8.520;2022-12-18T11:26:34;101844.97;;;1.50;49.84
28428;BME280;15662;49.128;8.520;2022-12-18T11:29:16;101821.31;;;1.45;49.85
28428;BME280;15662;49.128;8.520;2022-12-18T11:31:46;101817.91;;;1.48;50.07
28428;BME280;15662;49.128;8.520;2022-12-18T11:34:30;101829.66;;;1.61;49.86
28428;BME280;15662;49.128;8.520;2022-12-18T11:37:01;101830.75;;;1.67;49.69
28428;BME280;15662;49.128;8.520;2022-12-18T11:39:42;101834.41;;;1.72;49.99
28428;BME280;15662;49.128;8.520;2022-12-18T11:47:59;101820.16;;;1.88;49.62
28428;BME280;15662;49.128;8.520;2022-12-18T11:53:14;101818.94;;;1.78;49.78
28428;BME280;15662;49.128;8.520;2022-12-18T12:01:54;101796.91;;;1.97;49.51
28428;BME280;15662;49.128;8.520;2022-12-18T12:21:40;101768.47;;;2.37;49.79
28428;BME280;15662;49.128;8.520;2022-12-18T12:27:19;101772.22;;;2.46;49.56
28428;BME280;15662;49.128;8.520;2022-12-18T12:30:17;101775.97;;;2.54;49.61
28428;BME280;15662;49.128;8.520;2022-12-18T12:38:41;101787.72;;;2.69;49.74
28428;BME280;15662;49.128;8.520;2022-12-18T12:41:25;101782.59;;;2.72;49.73
28428;BME280;15662;49.128;8.520;2022-12-18T12:44:42;101797.50;;;2.74;49.57
28428;BME280;15662;49.128;8.520;2022-12-18T12:47:32;101790.50;;;2.73;50.03
28428;BME280;15662;49.128;8.520;2022-12-18T12:50:05;101787.09;;;2.76;49.59
28428;BME280;15662;49.128;8.520;2022-12-18T12:52:45;101788.91;;;2.80;49.88
28428;BME280;15662;49.128;8.520;2022-12-18T12:55:25;101783.88;;;2.86;49.66
28428;BME280;15662;49.128;8.520;2022-12-18T12:58:15;101777.88;;;2.90;49.77
28428;BME280;15662;49.128;8.520;2022-12-18T13:07:39;101769.97;;;2.89;49.43
28428;BME280;15662;49.128;8.520;2022-12-18T13:13:04;101747.53;;;2.98;49.98
28428;BME280;15662;49.128;8.520;2022-12-18T13:16:07;101746.06;;;3.08;50.11
28428;BME280;15662;49.128;8.520;2022-12-18T13:18:36;101742.72;;;3.15;50.11
28428;BME280;15662;49.128;8.520;2022-12-18T13:21:32;101730.72;;;3.23;49.34
28428;BME280;15662;49.128;8.520;2022-12-18T13:24:26;101715.91;;;3.24;49.37
28428;BME280;15662;49.128;8.520;2022-12-18T13:26:54;101725.66;;;3.29;49.83
28428;BME280;15662;49.128;8.520;2022-12-18T13:29:44;101724.13;;;3.38;49.59
28428;BME280;15662;49.128;8.520;2022-12-18T13:32:25;101713.66;;;3.39;49.59
28428;BME280;15662;49.128;8.520;2022-12-18T13:35:39;101716.38;;;3.42;49.41
28428;BME280;15662;49.128;8.520;2022-12-18T13:40:55;101705.03;;;3.43;49.55
28428;BME280;15662;49.128;8.520;2022-12-18T13:43:33;101713.09;;;3.51;49.45
28428;BME280;15662;49.128;8.520;2022-12-18T13:46:21;101711.34;;;3.50;49.13
28428;BME280;15662;49.128;8.520;2022-12-18T13:49:44;101705.06;;;3.45;49.16
28428;BME280;15662;49.128;8.520;2022-12-18T13:51:50;101700.50;;;3.36;49.24
28428;BME280;15662;49.128;8.520;2022-12-18T13:54:39;101700.44;;;3.34;49.06
28428;BME280;15662;49.128;8.520;2022-12-18T13:57:31;101702.94;;;3.30;49.30
28428;BME280;15662;49.128;8.520;2022-12-18T14:00:32;101707.25;;;3.26;48.95
28428;BME280;15662;49.128;8.520;2022-12-18T14:03:00;101710.72;;;3.25;49.89
28428;BME280;15662;49.128;8.520;2022-12-18T14:05:32;101718.72;;;3.31;49.31
28428;BME280;15662;49.128;8.520;2022-12-18T14:08:14;101712.59;;;3.31;49.34
28428;BME280;15662;49.128;8.520;2022-12-18T14:10:48;101711.59;;;3.26;48.98
28428;BME280;15662;49.128;8.520;2022-12-18T14:13:35;101704.56;;;3.25;49.31
28428;BME280;15662;49.128;8.520;2022-12-18T14:16:06;101702.75;;;3.22;49.48
28428;BME280;15662;49.128;8.520;2022-12-18T14:18:55;101703.75;;;3.26;49.07
28428;BME280;15662;49.128;8.520;2022-12-18T14:21:36;101702.03;;;3.28;49.47
28428;BME280;15662;49.128;8.520;2022-12-18T14:26:48;101696.06;;;3.33;49.16
28428;BME280;15662;49.128;8.520;2022-12-18T14:29:29;101700.53;;;3.38;49.00
28428;BME280;15662;49.128;8.520;2022-12-18T14:32:12;101702.44;;;3.45;48.81
28428;BME280;15662;49.128;8.520;2022-12-18T14:34:54;101694.50;;;3.42;48.93
28428;BME280;15662;49.128;8.520;2022-12-18T14:37:26;101698.03;;;3.44;49.15
28428;BME280;15662;49.128;8.520;2022-12-18T14:40:01;101701.50;;;3.41;48.80
28428;BME280;15662;49.128;8.520;2022-12-18T14:42:38;101696.91;;;3.32;48.91
28428;BME280;15662;49.128;8.520;2022-12-18T14:45:37;101707.38;;;3.32;49.04
28428;BME280;15662;49.128;8.520;2022-12-18T14:48:40;101709.03;;;3.29;49.47
28428;BME280;15662;49.128;8.520;2022-12-18T14:51:20;101710.72;;;3.25;49.35
28428;BME280;15662;49.128;8.520;2022-12-18T14:56:37;101689.66;;;3.22;49.00
28428;BME280;15662;49.128;8.520;2022-12-18T14:59:15;101689.75;;;3.25;49.01
28428;BME280;15662;49.128;8.520;2022-12-18T15:02:08;101683.56;;;3.23;48.92
28428;BME280;15662;49.128;8.520;2022-12-18T15:04:41;101691.41;;;3.22;49.02
28428;BME280;15662;49.128;8.520;2022-12-18T15:07:23;101669.44;;;3.17;49.25